sensor_id;sensor_type;location;lat;lon;timestamp;P1;durP1;ratioP1;P2;durP2;ratioP2
22332;SDS011;11334;36.986;-121.936;2022-09-27T00:00:39;9.95;;;5.22;;
22332;SDS011;11334;36.986;-121.936;2022-09-27T00:03:09;8.43;;;4.40;;
22332;SDS011;11334;36.986;-121.936;2022-09-27T00:05:36;11.57;;;5.20;;
22332;SDS011;11334;36.986;-121.936;2022-09-27T00:08:03;8.35;;;4.40;;
22332;SDS011;11334;36.986;-121.936;2022-09-27T00:10:29;8.27;;;4.80;;
22332;SDS011;11334;36.986;-121.936;2022-09-27T00:12:56;9.75;;;5.07;;
22332;SDS011;11334;36.986;-121.936;2022-09-27T00:15:23;8.65;;;5.18;;
22332;SDS011;11334;36.986;-121.936;2022-09-27T00:17:49;10.70;;;5.15;;
22332;SDS011;11334;36.986;-121.936;2022-09-27T00:20:16;8.48;;;5.03;;
22332;SDS011;11334;36.986;-121.936;2022-09-27T00:22:45;7.78;;;4.70;;
22332;SDS011;11334;36.986;-121.936;2022-09-27T00:25:12;8.23;;;4.28;;
22332;SDS011;11334;36.986;-121.936;2022-09-27T00:27:39;8.13;;;4.68;;
22332;SDS011;11334;36.986;-121.936;2022-09-27T00:30:06;9.35;;;4.70;;
22332;SDS011;11334;36.986;-121.936;2022-09-27T00:32:33;10.05;;;4.97;;
22332;SDS011;11334;36.986;-121.936;2022-09-27T00:34:59;11.55;;;4.93;;
22332;SDS011;11334;36.986;-121.936;2022-09-27T00:37:25;9.40;;;5.03;;
22332;SDS011;11334;36.986;-121.936;2022-09-27T00:39:51;10.10;;;5.20;;
22332;SDS011;11334;36.986;-121.936;2022-09-27T00:42:18;9.45;;;4.95;;
22332;SDS011;11334;36.986;-121.936;2022-09-27T00:45:00;18.00;;;5.50;;
22332;SDS011;11334;36.986;-121.936;2022-09-27T00:47:42;11.15;;;5.63;;
22332;SDS011;11334;36.986;-121.936;2022-09-27T00:53:07;10.52;;;5.38;;
22332;SDS011;11334;36.986;-121.936;2022-09-27T00:55:42;11.05;;;5.85;;
22332;SDS011;11334;36.986;-121.936;2022-09-27T00:58:18;10.02;;;4.63;;
22332;SDS011;11334;36.986;-121.936;2022-09-27T01:00:49;8.63;;;5.32;;
22332;SDS011;11334;36.986;-121.936;2022-09-27T01:03:22;10.60;;;5.20;;
22332;SDS011;11334;36.986;-121.936;2022-09-27T01:06:10;9.52;;;5.63;;
22332;SDS011;11334;36.986;-121.936;2022-09-27T01:08:36;10.55;;;5.30;;
22332;SDS011;11334;36.986;-121.936;2022-09-27T01:11:13;8.07;;;4.93;;
22332;SDS011;11334;36.986;-121.936;2022-09-27T01:14:11;11.50;;;4.82;;
22332;SDS011;11334;36.986;-121.936;2022-09-27T01:16:45;12.73;;;5.40;;
22332;SDS011;11334;36.986;-121.936;2022-09-27T01:37:57;9.30;;;5.65;;
22332;SDS011;11334;36.986;-121.936;2022-09-27T01:43:22;10.90;;;5.47;;
22332;SDS011;11334;36.986;-121.936;2022-09-27T01:46:01;15.38;;;6.68;;
22332;SDS011;11334;36.986;-121.936;2022-09-27T01:48:39;12.13;;;6.57;;
22332;SDS011;11334;36.986;-121.936;2022-09-27T01:51:28;9.35;;;6.50;;
22332;SDS011;11334;36.986;-121.936;2022-09-27T01:54:01;14.50;;;6.95;;
22332;SDS011;11334;36.986;-121.936;2022-09-27T01:56:36;15.93;;;6.95;;
22332;SDS011;11334;36.986;-121.936;2022-09-27T01:59:07;13.05;;;7.93;;
22332;SDS011;11334;36.986;-121.936;2022-09-27T02:01:40;12.43;;;6.90;;
22332;SDS011;11334;36.986;-121.936;2022-09-27T02:04:12;12.50;;;6.65;;
22332;SDS011;11334;36.986;-121.936;2022-09-27T02:06:45;13.20;;;6.57;;
22332;SDS011;11334;36.986;-121.936;2022-09-27T02:09:17;11.02;;;6.45;;
22332;SDS011;11334;36.986;-121.936;2022-09-27T02:11:52;11.68;;;7.35;;
22332;SDS011;11334;36.986;-121.936;2022-09-27T02:14:24;18.50;;;7.32;;
22332;SDS011;11334;36.986;-121.936;2022-09-27T02:17:21;10.55;;;6.78;;
22332;SDS011;11334;36.986;-121.936;2022-09-27T02:20:11;14.98;;;7.50;;
22332;SDS011;11334;36.986;-121.936;2022-09-27T02:22:41;12.02;;;7.10;;
22332;SDS011;11334;36.986;-121.936;2022-09-27T02:25:14;10.73;;;6.97;;
22332;SDS011;11334;36.986;-121.936;2022-09-27T02:30:38;12.00;;;6.55;;
22332;SDS011;11334;36.986;-121.936;2022-09-27T02:33:04;13.25;;;7.78;;
22332;SDS011;11334;36.986;-121.936;2022-09-27T02:35:31;12.32;;;7.75;;
22332;SDS011;11334;36.986;-121.936;2022-09-27T02:37:58;15.48;;;7.00;;
22332;SDS011;11334;36.986;-121.936;2022-09-27T02:40:28;14.13;;;7.53;;
22332;SDS011;11334;36.986;-121.936;2022-09-27T02:42:57;11.10;;;6.97;;
22332;SDS011;11334;36.986;-121.936;2022-09-27T02:45:26;13.07;;;7.65;;
22332;SDS011;11334;36.986;-121.936;2022-09-27T02:48:04;15.50;;;8.10;;
22332;SDS011;11334;36.986;-121.936;2022-09-27T02:50:44;15.40;;;7.75;;
22332;SDS011;11334;36.986;-121.936;2022-09-27T02:53:15;13.73;;;7.18;;
22332;SDS011;11334;36.986;-121.936;2022-09-27T02:58:41;16.15;;;7.20;;
22332;SDS011;11334;36.986;-121.936;2022-09-27T03:06:18;12.55;;;7.72;;
22332;SDS011;11334;36.986;-121.936;2022-09-27T03:08:47;12.25;;;7.00;;
22332;SDS011;11334;36.986;-121.936;2022-09-27T03:11:14;12.93;;;7.90;;
22332;SDS011;11334;36.986;-121.936;2022-09-27T03:13:41;16.77;;;8.93;;
22332;SDS011;11334;36.986;-121.936;2022-09-27T03:16:08;14.27;;;7.70;;
22332;SDS011;11334;36.986;-121.936;2022-09-27T03:18:36;15.10;;;7.78;;
22332;SDS011;11334;36.986;-121.936;2022-09-27T03:21:02;16.65;;;8.40;;
22332;SDS011;11334;36.986;-121.936;2022-09-27T03:23:28;12.30;;;7.82;;
22332;SDS011;11334;36.986;-121.936;2022-09-27T03:25:55;14.88;;;7.88;;
22332;SDS011;11334;36.986;-121.936;2022-09-27T03:28:21;10.48;;;7.07;;
22332;SDS011;11334;36.986;-121.936;2022-09-27T03:30:50;15.50;;;7.82;;
22332;SDS011;11334;36.986;-121.936;2022-09-27T03:33:17;11.15;;;7.57;;
22332;SDS011;11334;36.986;-121.936;2022-09-27T03:35:43;17.40;;;6.97;;
22332;SDS011;11334;36.986;-121.936;2022-09-27T03:38:09;11.57;;;6.78;;
22332;SDS011;11334;36.986;-121.936;2022-09-27T03:40:36;8.95;;;6.97;;
22332;SDS011;11334;36.986;-121.936;2022-09-27T03:43:02;16.13;;;7.10;;
22332;SDS011;11334;36.986;-121.936;2022-09-27T03:45:28;10.90;;;7.18;;
22332;SDS011;11334;36.986;-121.936;2022-09-27T03:47:54;12.70;;;7.25;;
22332;SDS011;11334;36.986;-121.936;2022-09-27T03:50:21;12.73;;;6.95;;
22332;SDS011;11334;36.986;-121.936;2022-09-27T03:52:47;14.45;;;7.05;;
22332;SDS011;11334;36.986;-121.936;2022-09-27T03:55:13;12.43;;;6.72;;
22332;SDS011;11334;36.986;-121.936;2022-09-27T03:57:43;12.50;;;7.28;;
22332;SDS011;11334;36.986;-121.936;2022-09-27T04:00:10;14.73;;;7.78;;
22332;SDS011;11334;36.986;-121.936;2022-09-27T04:02:42;11.02;;;7.82;;
22332;SDS011;11334;36.986;-121.936;2022-09-27T04:05:09;11.45;;;7.47;;
22332;SDS011;11334;36.986;-121.936;2022-09-27T04:07:35;12.27;;;7.20;;
22332;SDS011;11334;36.986;-121.936;2022-09-27T04:10:02;12.65;;;7.15;;
22332;SDS011;11334;36.986;-121.936;2022-09-27T04:12:29;14.18;;;7.85;;
22332;SDS011;11334;36.986;-121.936;2022-09-27T04:14:57;10.40;;;7.95;;
22332;SDS011;11334;36.986;-121.936;2022-09-27T04:17:23;11.13;;;6.95;;
22332;SDS011;11334;36.986;-121.936;2022-09-27T04:19:50;11.07;;;6.90;;
22332;SDS011;11334;36.986;-121.936;2022-09-27T04:22:16;12.65;;;7.57;;
22332;SDS011;11334;36.986;-121.936;2022-09-27T04:24:42;13.38;;;8.02;;
22332;SDS011;11334;36.986;-121.936;2022-09-27T04:27:08;16.67;;;7.65;;
22332;SDS011;11334;36.986;-121.936;2022-09-27T04:29:34;10.73;;;7.85;;
22332;SDS011;11334;36.986;-121.936;2022-09-27T04:32:01;13.35;;;8.48;;
22332;SDS011;11334;36.986;-121.936;2022-09-27T04:34:27;13.32;;;7.65;;
22332;SDS011;11334;36.986;-121.936;2022-09-27T04:37:11;12.75;;;7.88;;
22332;SDS011;11334;36.986;-121.936;2022-09-27T04:39:38;12.23;;;8.15;;
22332;SDS011;11334;36.986;-121.936;2022-09-27T04:42:04;13.30;;;7.88;;
22332;SDS011;11334;36.986;-121.936;2022-09-27T04:44:30;11.98;;;8.00;;
22332;SDS011;11334;36.986;-121.936;2022-09-27T04:46:56;17.15;;;8.27;;
22332;SDS011;11334;36.986;-121.936;2022-09-27T04:49:23;11.90;;;8.77;;
22332;SDS011;11334;36.986;-121.936;2022-09-27T04:51:49;11.48;;;8.27;;
22332;SDS011;11334;36.986;-121.936;2022-09-27T04:54:15;12.75;;;8.88;;
22332;SDS011;11334;36.986;-121.936;2022-09-27T04:56:41;17.42;;;9.15;;
22332;SDS011;11334;36.986;-121.936;2022-09-27T04:59:08;13.50;;;8.95;;
22332;SDS011;11334;36.986;-121.936;2022-09-27T05:01:34;18.00;;;9.20;;
22332;SDS011;11334;36.986;-121.936;2022-09-27T05:04:00;13.93;;;8.32;;
22332;SDS011;11334;36.986;-121.936;2022-09-27T05:06:26;12.35;;;8.75;;
22332;SDS011;11334;36.986;-121.936;2022-09-27T05:08:53;14.15;;;8.70;;
22332;SDS011;11334;36.986;-121.936;2022-09-27T05:11:19;16.85;;;9.43;;
22332;SDS011;11334;36.986;-121.936;2022-09-27T05:13:46;14.60;;;9.05;;
22332;SDS011;11334;36.986;-121.936;2022-09-27T05:16:12;15.50;;;9.48;;
22332;SDS011;11334;36.986;-121.936;2022-09-27T05:18:38;16.92;;;9.88;;
22332;SDS011;11334;36.986;-121.936;2022-09-27T05:21:05;11.20;;;8.40;;
22332;SDS011;11334;36.986;-121.936;2022-09-27T05:23:31;16.27;;;8.70;;
22332;SDS011;11334;36.986;-121.936;2022-09-27T05:25:57;15.20;;;9.35;;
22332;SDS011;11334;36.986;-121.936;2022-09-27T05:28:27;11.88;;;9.05;;
22332;SDS011;11334;36.986;-121.936;2022-09-27T05:30:55;13.32;;;9.30;;
22332;SDS011;11334;36.986;-121.936;2022-09-27T05:33:21;17.80;;;10.20;;
22332;SDS011;11334;36.986;-121.936;2022-09-27T05:35:54;18.45;;;9.07;;
22332;SDS011;11334;36.986;-121.936;2022-09-27T05:38:22;14.98;;;8.65;;
22332;SDS011;11334;36.986;-121.936;2022-09-27T05:40:49;20.20;;;10.05;;
22332;SDS011;11334;36.986;-121.936;2022-09-27T05:43:16;16.20;;;10.30;;
22332;SDS011;11334;36.986;-121.936;2022-09-27T05:45:43;18.98;;;9.88;;
22332;SDS011;11334;36.986;-121.936;2022-09-27T05:48:09;14.48;;;9.90;;
22332;SDS011;11334;36.986;-121.936;2022-09-27T05:50:36;15.55;;;9.80;;
22332;SDS011;11334;36.986;-121.936;2022-09-27T05:53:03;15.90;;;10.77;;
22332;SDS011;11334;36.986;-121.936;2022-09-27T05:55:29;12.88;;;9.00;;
22332;SDS011;11334;36.986;-121.936;2022-09-27T05:58:00;18.08;;;10.13;;
22332;SDS011;11334;36.986;-121.936;2022-09-27T06:00:28;16.90;;;9.88;;
22332;SDS011;11334;36.986;-121.936;2022-09-27T06:02:55;13.00;;;10.30;;
22332;SDS011;11334;36.986;-121.936;2022-09-27T06:05:24;13.82;;;9.98;;
22332;SDS011;11334;36.986;-121.936;2022-09-27T06:07:56;15.65;;;10.52;;
22332;SDS011;11334;36.986;-121.936;2022-09-27T06:10:27;14.38;;;9.57;;
22332;SDS011;11334;36.986;-121.936;2022-09-27T06:13:01;16.55;;;10.45;;
22332;SDS011;11334;36.986;-121.936;2022-09-27T06:15:32;16.42;;;9.93;;
22332;SDS011;11334;36.986;-121.936;2022-09-27T06:18:04;13.30;;;10.20;;
22332;SDS011;11334;36.986;-121.936;2022-09-27T06:20:32;14.43;;;9.93;;
22332;SDS011;11334;36.986;-121.936;2022-09-27T06:23:03;17.27;;;9.85;;
22332;SDS011;11334;36.986;-121.936;2022-09-27T06:25:30;15.15;;;9.82;;
22332;SDS011;11334;36.986;-121.936;2022-09-27T06:27:56;16.83;;;9.85;;
22332;SDS011;11334;36.986;-121.936;2022-09-27T06:30:22;14.52;;;10.02;;
22332;SDS011;11334;36.986;-121.936;2022-09-27T06:32:53;13.05;;;10.10;;
22332;SDS011;11334;36.986;-121.936;2022-09-27T06:35:24;14.15;;;9.52;;
22332;SDS011;11334;36.986;-121.936;2022-09-27T06:37:52;17.27;;;10.15;;
22332;SDS011;11334;36.986;-121.936;2022-09-27T06:40:20;14.82;;;10.32;;
22332;SDS011;11334;36.986;-121.936;2022-09-27T06:42:47;16.60;;;10.32;;
22332;SDS011;11334;36.986;-121.936;2022-09-27T06:45:14;15.77;;;9.88;;
22332;SDS011;11334;36.986;-121.936;2022-09-27T06:47:40;13.13;;;10.30;;
22332;SDS011;11334;36.986;-121.936;2022-09-27T06:50:07;18.08;;;11.00;;
22332;SDS011;11334;36.986;-121.936;2022-09-27T06:52:34;16.20;;;10.77;;
22332;SDS011;11334;36.986;-121.936;2022-09-27T06:55:03;15.95;;;11.35;;
22332;SDS011;11334;36.986;-121.936;2022-09-27T06:57:30;14.82;;;10.50;;
22332;SDS011;11334;36.986;-121.936;2022-09-27T07:00:15;17.13;;;10.55;;
22332;SDS011;11334;36.986;-121.936;2022-09-27T07:02:53;15.13;;;10.50;;
22332;SDS011;11334;36.986;-121.936;2022-09-27T07:05:26;16.77;;;11.07;;
22332;SDS011;11334;36.986;-121.936;2022-09-27T07:07:54;17.52;;;10.90;;
22332;SDS011;11334;36.986;-121.936;2022-09-27T07:10:25;13.18;;;10.32;;
22332;SDS011;11334;36.986;-121.936;2022-09-27T07:12:53;11.27;;;9.07;;
22332;SDS011;11334;36.986;-121.936;2022-09-27T07:15:20;16.83;;;10.48;;
22332;SDS011;11334;36.986;-121.936;2022-09-27T07:17:56;14.13;;;10.50;;
22332;SDS011;11334;36.986;-121.936;2022-09-27T07:20:24;12.90;;;10.00;;
22332;SDS011;11334;36.986;-121.936;2022-09-27T07:22:51;16.95;;;10.70;;
22332;SDS011;11334;36.986;-121.936;2022-09-27T07:25:18;11.88;;;9.07;;
22332;SDS011;11334;36.986;-121.936;2022-09-27T07:27:44;12.75;;;9.18;;
22332;SDS011;11334;36.986;-121.936;2022-09-27T07:30:11;14.52;;;9.27;;
22332;SDS011;11334;36.986;-121.936;2022-09-27T07:32:38;11.07;;;8.35;;
22332;SDS011;11334;36.986;-121.936;2022-09-27T07:35:04;13.80;;;9.95;;
22332;SDS011;11334;36.986;-121.936;2022-09-27T07:37:33;12.77;;;8.88;;
22332;SDS011;11334;36.986;-121.936;2022-09-27T07:40:00;13.15;;;9.38;;
22332;SDS011;11334;36.986;-121.936;2022-09-27T07:42:29;12.20;;;10.20;;
22332;SDS011;11334;36.986;-121.936;2022-09-27T07:44:55;12.60;;;10.30;;
22332;SDS011;11334;36.986;-121.936;2022-09-27T07:47:21;12.65;;;9.93;;
22332;SDS011;11334;36.986;-121.936;2022-09-27T07:49:49;14.25;;;10.85;;
22332;SDS011;11334;36.986;-121.936;2022-09-27T07:52:17;12.95;;;9.60;;
22332;SDS011;11334;36.986;-121.936;2022-09-27T07:54:45;18.08;;;10.52;;
22332;SDS011;11334;36.986;-121.936;2022-09-27T07:57:12;12.93;;;9.27;;
22332;SDS011;11334;36.986;-121.936;2022-09-27T07:59:41;15.38;;;11.18;;
22332;SDS011;11334;36.986;-121.936;2022-09-27T08:02:12;10.68;;;9.43;;
22332;SDS011;11334;36.986;-121.936;2022-09-27T08:04:40;11.55;;;9.43;;
22332;SDS011;11334;36.986;-121.936;2022-09-27T08:07:11;13.38;;;10.32;;
22332;SDS011;11334;36.986;-121.936;2022-09-27T08:09:37;13.27;;;10.40;;
22332;SDS011;11334;36.986;-121.936;2022-09-27T08:12:03;10.93;;;9.77;;
22332;SDS011;11334;36.986;-121.936;2022-09-27T08:14:30;14.88;;;9.52;;
22332;SDS011;11334;36.986;-121.936;2022-09-27T08:16:56;10.90;;;8.93;;
22332;SDS011;11334;36.986;-121.936;2022-09-27T08:19:23;11.00;;;9.77;;
22332;SDS011;11334;36.986;-121.936;2022-09-27T08:21:50;14.30;;;10.70;;
22332;SDS011;11334;36.986;-121.936;2022-09-27T08:24:19;16.98;;;9.98;;
22332;SDS011;11334;36.986;-121.936;2022-09-27T08:26:46;12.82;;;9.70;;
22332;SDS011;11334;36.986;-121.936;2022-09-27T08:29:12;10.75;;;9.48;;
22332;SDS011;11334;36.986;-121.936;2022-09-27T08:31:38;13.00;;;9.52;;
22332;SDS011;11334;36.986;-121.936;2022-09-27T08:34:05;10.20;;;9.13;;
22332;SDS011;11334;36.986;-121.936;2022-09-27T08:36:31;12.55;;;9.85;;
22332;SDS011;11334;36.986;-121.936;2022-09-27T08:39:00;10.40;;;9.32;;
22332;SDS011;11334;36.986;-121.936;2022-09-27T08:49:37;11.25;;;9.13;;
22332;SDS011;11334;36.986;-121.936;2022-09-27T08:52:06;12.15;;;8.52;;
22332;SDS011;11334;36.986;-121.936;2022-09-27T08:54:40;13.13;;;10.32;;
22332;SDS011;11334;36.986;-121.936;2022-09-27T08:57:09;13.50;;;10.10;;
22332;SDS011;11334;36.986;-121.936;2022-09-27T08:59:41;11.68;;;9.48;;
22332;SDS011;11334;36.986;-121.936;2022-09-27T09:02:29;11.50;;;9.25;;
22332;SDS011;11334;36.986;-121.936;2022-09-27T09:05:01;13.02;;;8.57;;
22332;SDS011;11334;36.986;-121.936;2022-09-27T09:14:00;13.85;;;9.60;;
22332;SDS011;11334;36.986;-121.936;2022-09-27T09:16:40;12.40;;;10.00;;
22332;SDS011;11334;36.986;-121.936;2022-09-27T09:25:00;10.65;;;8.90;;
22332;SDS011;11334;36.986;-121.936;2022-09-27T09:33:42;9.77;;;8.38;;
22332;SDS011;11334;36.986;-121.936;2022-09-27T09:36:19;9.95;;;7.45;;
22332;SDS011;11334;36.986;-121.936;2022-09-27T09:39:15;8.07;;;7.15;;
22332;SDS011;11334;36.986;-121.936;2022-09-27T09:42:14;10.18;;;6.80;;
22332;SDS011;11334;36.986;-121.936;2022-09-27T09:44:55;7.63;;;6.53;;
22332;SDS011;11334;36.986;-121.936;2022-09-27T09:49:55;8.77;;;6.25;;
22332;SDS011;11334;36.986;-121.936;2022-09-27T09:52:33;7.80;;;6.35;;
22332;SDS011;11334;36.986;-121.936;2022-09-27T09:55:06;9.23;;;7.55;;
22332;SDS011;11334;36.986;-121.936;2022-09-27T09:57:45;7.88;;;7.07;;
22332;SDS011;11334;36.986;-121.936;2022-09-27T10:00:25;8.90;;;6.72;;
22332;SDS011;11334;36.986;-121.936;2022-09-27T10:02:53;8.05;;;6.60;;
22332;SDS011;11334;36.986;-121.936;2022-09-27T10:05:21;9.85;;;6.65;;
22332;SDS011;11334;36.986;-121.936;2022-09-27T10:07:50;9.88;;;7.38;;
22332;SDS011;11334;36.986;-121.936;2022-09-27T10:10:19;8.73;;;7.65;;
22332;SDS011;11334;36.986;-121.936;2022-09-27T10:12:46;10.45;;;7.60;;
22332;SDS011;11334;36.986;-121.936;2022-09-27T10:15:17;8.13;;;7.32;;
22332;SDS011;11334;36.986;-121.936;2022-09-27T10:17:45;10.25;;;7.35;;
22332;SDS011;11334;36.986;-121.936;2022-09-27T10:20:26;10.63;;;7.75;;
22332;SDS011;11334;36.986;-121.936;2022-09-27T10:23:37;9.27;;;6.95;;
22332;SDS011;11334;36.986;-121.936;2022-09-27T10:25:57;11.80;;;8.02;;
22332;SDS011;11334;36.986;-121.936;2022-09-27T10:31:14;11.07;;;7.88;;
22332;SDS011;11334;36.986;-121.936;2022-09-27T10:36:27;9.10;;;7.03;;
22332;SDS011;11334;36.986;-121.936;2022-09-27T10:38:56;9.77;;;7.30;;
22332;SDS011;11334;36.986;-121.936;2022-09-27T10:41:25;10.68;;;7.68;;
22332;SDS011;11334;36.986;-121.936;2022-09-27T10:43:56;8.38;;;7.45;;
22332;SDS011;11334;36.986;-121.936;2022-09-27T10:46:38;8.38;;;7.32;;
22332;SDS011;11334;36.986;-121.936;2022-09-27T10:49:08;9.70;;;7.07;;
22332;SDS011;11334;36.986;-121.936;2022-09-27T10:51:43;9.55;;;7.20;;
22332;SDS011;11334;36.986;-121.936;2022-09-27T10:54:21;13.85;;;8.27;;
22332;SDS011;11334;36.986;-121.936;2022-09-27T10:56:57;9.13;;;7.80;;
22332;SDS011;11334;36.986;-121.936;2022-09-27T10:59:39;9.02;;;8.10;;
22332;SDS011;11334;36.986;-121.936;2022-09-27T11:02:17;10.65;;;7.40;;
22332;SDS011;11334;36.986;-121.936;2022-09-27T11:05:28;12.23;;;8.93;;
22332;SDS011;11334;36.986;-121.936;2022-09-27T11:07:59;10.27;;;7.93;;
22332;SDS011;11334;36.986;-121.936;2022-09-27T11:15:47;11.35;;;8.43;;
22332;SDS011;11334;36.986;-121.936;2022-09-27T11:18:46;9.57;;;7.00;;
22332;SDS011;11334;36.986;-121.936;2022-09-27T11:21:26;8.13;;;7.30;;
22332;SDS011;11334;36.986;-121.936;2022-09-27T11:30:12;9.48;;;6.80;;
22332;SDS011;11334;36.986;-121.936;2022-09-27T11:39:06;6.78;;;5.65;;
22332;SDS011;11334;36.986;-121.936;2022-09-27T11:47:15;7.43;;;5.45;;
22332;SDS011;11334;36.986;-121.936;2022-09-27T11:55:26;6.05;;;5.13;;
22332;SDS011;11334;36.986;-121.936;2022-09-27T11:58:09;5.88;;;5.22;;
22332;SDS011;11334;36.986;-121.936;2022-09-27T12:04:03;6.18;;;5.35;;
22332;SDS011;11334;36.986;-121.936;2022-09-27T12:06:06;5.50;;;4.90;;
22332;SDS011;11334;36.986;-121.936;2022-09-27T12:16:54;7.32;;;5.13;;
22332;SDS011;11334;36.986;-121.936;2022-09-27T12:19:23;5.20;;;4.60;;
22332;SDS011;11334;36.986;-121.936;2022-09-27T12:21:57;4.95;;;4.45;;
22332;SDS011;11334;36.986;-121.936;2022-09-27T12:24:28;5.28;;;4.82;;
22332;SDS011;11334;36.986;-121.936;2022-09-27T12:26:57;4.90;;;4.45;;
22332;SDS011;11334;36.986;-121.936;2022-09-27T12:32:11;5.80;;;4.60;;
22332;SDS011;11334;36.986;-121.936;2022-09-27T12:37:42;5.40;;;4.85;;
22332;SDS011;11334;36.986;-121.936;2022-09-27T12:40:21;8.82;;;5.40;;
22332;SDS011;11334;36.986;-121.936;2022-09-27T12:42:53;5.30;;;4.30;;
22332;SDS011;11334;36.986;-121.936;2022-09-27T12:45:50;5.63;;;4.90;;
22332;SDS011;11334;36.986;-121.936;2022-09-27T12:51:16;5.35;;;4.72;;
22332;SDS011;11334;36.986;-121.936;2022-09-27T12:53:56;5.95;;;5.15;;
22332;SDS011;11334;36.986;-121.936;2022-09-27T12:56:34;5.90;;;5.03;;
22332;SDS011;11334;36.986;-121.936;2022-09-27T12:59:18;6.22;;;5.18;;
22332;SDS011;11334;36.986;-121.936;2022-09-27T13:07:57;6.65;;;5.10;;
22332;SDS011;11334;36.986;-121.936;2022-09-27T13:13:26;5.10;;;4.65;;
22332;SDS011;11334;36.986;-121.936;2022-09-27T13:15:56;6.13;;;5.10;;
22332;SDS011;11334;36.986;-121.936;2022-09-27T13:21:01;6.22;;;4.78;;
22332;SDS011;11334;36.986;-121.936;2022-09-27T13:31:06;5.05;;;4.55;;
22332;SDS011;11334;36.986;-121.936;2022-09-27T13:33:52;4.78;;;4.28;;
22332;SDS011;11334;36.986;-121.936;2022-09-27T13:36:24;4.78;;;4.05;;
22332;SDS011;11334;36.986;-121.936;2022-09-27T13:41:51;3.72;;;3.40;;
22332;SDS011;11334;36.986;-121.936;2022-09-27T13:47:31;4.00;;;3.53;;
22332;SDS011;11334;36.986;-121.936;2022-09-27T13:50:19;3.42;;;3.13;;
22332;SDS011;11334;36.986;-121.936;2022-09-27T13:52:58;4.15;;;3.72;;
22332;SDS011;11334;36.986;-121.936;2022-09-27T14:00:46;4.47;;;3.72;;
22332;SDS011;11334;36.986;-121.936;2022-09-27T14:03:26;3.90;;;3.50;;
22332;SDS011;11334;36.986;-121.936;2022-09-27T14:06:02;4.22;;;3.75;;
22332;SDS011;11334;36.986;-121.936;2022-09-27T14:08:32;4.22;;;3.83;;
22332;SDS011;11334;36.986;-121.936;2022-09-27T14:11:18;4.82;;;4.35;;
22332;SDS011;11334;36.986;-121.936;2022-09-27T14:13:49;6.13;;;3.97;;
22332;SDS011;11334;36.986;-121.936;2022-09-27T14:16:17;4.13;;;3.80;;
22332;SDS011;11334;36.986;-121.936;2022-09-27T14:18:49;3.95;;;3.65;;
22332;SDS011;11334;36.986;-121.936;2022-09-27T14:21:21;4.38;;;3.97;;
22332;SDS011;11334;36.986;-121.936;2022-09-27T14:27:04;3.97;;;3.53;;
22332;SDS011;11334;36.986;-121.936;2022-09-27T14:32:22;7.63;;;3.72;;
22332;SDS011;11334;36.986;-121.936;2022-09-27T14:35:06;4.10;;;3.70;;
22332;SDS011;11334;36.986;-121.936;2022-09-27T14:37:56;5.47;;;3.60;;
22332;SDS011;11334;36.986;-121.936;2022-09-27T14:40:24;5.50;;;4.05;;
22332;SDS011;11334;36.986;-121.936;2022-09-27T14:42:55;4.88;;;3.53;;
22332;SDS011;11334;36.986;-121.936;2022-09-27T14:45:32;3.58;;;3.28;;
22332;SDS011;11334;36.986;-121.936;2022-09-27T14:53:46;4.85;;;3.63;;
22332;SDS011;11334;36.986;-121.936;2022-09-27T14:56:17;4.50;;;3.58;;
22332;SDS011;11334;36.986;-121.936;2022-09-27T14:58:58;4.10;;;3.55;;
22332;SDS011;11334;36.986;-121.936;2022-09-27T15:01:28;3.67;;;3.28;;
22332;SDS011;11334;36.986;-121.936;2022-09-27T15:03:55;3.28;;;2.97;;
22332;SDS011;11334;36.986;-121.936;2022-09-27T15:06:28;3.60;;;3.30;;
22332;SDS011;11334;36.986;-121.936;2022-09-27T15:08:55;4.05;;;3.03;;
22332;SDS011;11334;36.986;-121.936;2022-09-27T15:11:22;4.03;;;3.30;;
22332;SDS011;11334;36.986;-121.936;2022-09-27T15:13:49;3.50;;;2.67;;
22332;SDS011;11334;36.986;-121.936;2022-09-27T15:16:19;3.17;;;2.88;;
22332;SDS011;11334;36.986;-121.936;2022-09-27T15:18:48;3.08;;;2.78;;
22332;SDS011;11334;36.986;-121.936;2022-09-27T15:21:27;3.60;;;2.53;;
22332;SDS011;11334;36.986;-121.936;2022-09-27T15:23:58;2.60;;;2.40;;
22332;SDS011;11334;36.986;-121.936;2022-09-27T15:26:32;3.22;;;2.95;;
22332;SDS011;11334;36.986;-121.936;2022-09-27T15:29:04;3.80;;;2.95;;
22332;SDS011;11334;36.986;-121.936;2022-09-27T15:31:34;4.57;;;2.70;;
22332;SDS011;11334;36.986;-121.936;2022-09-27T15:34:01;2.92;;;2.65;;
22332;SDS011;11334;36.986;-121.936;2022-09-27T15:36:51;2.90;;;2.67;;
22332;SDS011;11334;36.986;-121.936;2022-09-27T15:39:37;5.32;;;2.47;;
22332;SDS011;11334;36.986;-121.936;2022-09-27T15:42:08;3.38;;;3.08;;
22332;SDS011;11334;36.986;-121.936;2022-09-27T15:52:48;4.78;;;3.13;;
22332;SDS011;11334;36.986;-121.936;2022-09-27T15:55:16;3.80;;;2.90;;
22332;SDS011;11334;36.986;-121.936;2022-09-27T15:57:46;6.20;;;3.58;;
22332;SDS011;11334;36.986;-121.936;2022-09-27T16:00:16;4.13;;;3.72;;
22332;SDS011;11334;36.986;-121.936;2022-09-27T16:02:45;5.63;;;3.63;;
22332;SDS011;11334;36.986;-121.936;2022-09-27T16:05:12;5.43;;;3.95;;
22332;SDS011;11334;36.986;-121.936;2022-09-27T16:07:38;4.57;;;3.85;;
22332;SDS011;11334;36.986;-121.936;2022-09-27T16:10:14;4.57;;;4.18;;
22332;SDS011;11334;36.986;-121.936;2022-09-27T16:12:47;4.38;;;3.70;;
22332;SDS011;11334;36.986;-121.936;2022-09-27T16:15:15;6.38;;;4.47;;
22332;SDS011;11334;36.986;-121.936;2022-09-27T16:17:41;7.47;;;4.60;;
22332;SDS011;11334;36.986;-121.936;2022-09-27T16:20:18;4.32;;;3.92;;
22332;SDS011;11334;36.986;-121.936;2022-09-27T16:22:51;6.75;;;5.32;;
22332;SDS011;11334;36.986;-121.936;2022-09-27T16:25:18;6.20;;;5.60;;
22332;SDS011;11334;36.986;-121.936;2022-09-27T16:27:46;6.30;;;5.50;;
22332;SDS011;11334;36.986;-121.936;2022-09-27T16:30:12;6.45;;;4.93;;
22332;SDS011;11334;36.986;-121.936;2022-09-27T16:32:39;7.60;;;5.97;;
22332;SDS011;11334;36.986;-121.936;2022-09-27T16:35:11;7.43;;;5.40;;
22332;SDS011;11334;36.986;-121.936;2022-09-27T16:37:38;8.43;;;5.10;;
22332;SDS011;11334;36.986;-121.936;2022-09-27T16:40:05;5.88;;;5.28;;
22332;SDS011;11334;36.986;-121.936;2022-09-27T16:42:33;9.20;;;6.05;;
22332;SDS011;11334;36.986;-121.936;2022-09-27T16:45:00;6.95;;;6.03;;
22332;SDS011;11334;36.986;-121.936;2022-09-27T16:47:27;6.72;;;6.03;;
22332;SDS011;11334;36.986;-121.936;2022-09-27T16:49:53;6.95;;;5.22;;
22332;SDS011;11334;36.986;-121.936;2022-09-27T16:52:38;6.88;;;6.03;;
22332;SDS011;11334;36.986;-121.936;2022-09-27T16:55:06;6.18;;;5.50;;
22332;SDS011;11334;36.986;-121.936;2022-09-27T16:57:33;8.52;;;6.68;;
22332;SDS011;11334;36.986;-121.936;2022-09-27T17:00:00;7.20;;;6.50;;
22332;SDS011;11334;36.986;-121.936;2022-09-27T17:02:26;10.93;;;7.50;;
22332;SDS011;11334;36.986;-121.936;2022-09-27T17:04:53;9.73;;;7.90;;
22332;SDS011;11334;36.986;-121.936;2022-09-27T17:07:19;9.90;;;8.38;;
22332;SDS011;11334;36.986;-121.936;2022-09-27T17:09:46;10.52;;;7.90;;
22332;SDS011;11334;36.986;-121.936;2022-09-27T17:12:12;8.85;;;7.80;;